Terminal Aerodrome Forecast
Issued by NWS

Home | Current Version | Previous Version | Text Only | Print | Product List | Glossary On
Versions: 1 2 3 4 5 6 7 8 9 10 11 12 13 14 15
000
FTUS43 KMPX 132300
TAFRNH
TAF
KRNH 132335Z 1400/1424 36014G22KT P6SM VCSH OVC035
     FM140500 35018G25KT P6SM BKN040 OVC080
     FM141000 34017G23KT P6SM SCT045 BKN120
     FM141700 34015G22KT P6SM BKN050=

USA.gov is the U.S. government's official web portal to all federal, state and local government web resources and services.